sensor_id;sensor_type;location;lat;lon;timestamp;P1;durP1;ratioP1;P2;durP2;ratioP2
54823;SDS011;40724;53.196;5.980;2023-08-30T00:00:55;4.60;;;3.75;;
54823;SDS011;40724;53.196;5.980;2023-08-30T00:03:21;7.00;;;3.95;;
54823;SDS011;40724;53.196;5.980;2023-08-30T00:05:47;4.97;;;3.38;;
54823;SDS011;40724;53.196;5.980;2023-08-30T00:08:13;7.00;;;4.03;;
54823;SDS011;40724;53.196;5.980;2023-08-30T00:10:43;4.40;;;3.17;;
54823;SDS011;40724;53.196;5.980;2023-08-30T00:13:10;6.13;;;3.83;;
54823;SDS011;40724;53.196;5.980;2023-08-30T00:15:36;5.10;;;3.50;;
54823;SDS011;40724;53.196;5.980;2023-08-30T00:18:02;5.30;;;3.92;;
54823;SDS011;40724;53.196;5.980;2023-08-30T00:20:29;5.03;;;3.85;;
54823;SDS011;40724;53.196;5.980;2023-08-30T00:22:55;5.28;;;3.58;;
54823;SDS011;40724;53.196;5.980;2023-08-30T00:25:21;6.90;;;4.10;;
54823;SDS011;40724;53.196;5.980;2023-08-30T00:27:47;5.43;;;3.85;;
54823;SDS011;40724;53.196;5.980;2023-08-30T00:30:13;6.07;;;3.92;;
54823;SDS011;40724;53.196;5.980;2023-08-30T00:32:39;7.18;;;3.88;;
54823;SDS011;40724;53.196;5.980;2023-08-30T00:35:06;5.35;;;3.47;;
54823;SDS011;40724;53.196;5.980;2023-08-30T00:37:32;5.72;;;3.53;;
54823;SDS011;40724;53.196;5.980;2023-08-30T00:39:58;7.90;;;4.50;;
54823;SDS011;40724;53.196;5.980;2023-08-30T00:42:25;4.78;;;3.53;;
54823;SDS011;40724;53.196;5.980;2023-08-30T00:44:52;5.57;;;4.13;;
54823;SDS011;40724;53.196;5.980;2023-08-30T00:47:18;4.78;;;4.07;;
54823;SDS011;40724;53.196;5.980;2023-08-30T00:49:44;6.47;;;3.70;;
54823;SDS011;40724;53.196;5.980;2023-08-30T00:52:10;4.97;;;4.13;;
54823;SDS011;40724;53.196;5.980;2023-08-30T00:54:37;5.93;;;4.07;;
54823;SDS011;40724;53.196;5.980;2023-08-30T00:57:03;5.72;;;3.70;;
54823;SDS011;40724;53.196;5.980;2023-08-30T00:59:31;5.10;;;3.40;;
54823;SDS011;40724;53.196;5.980;2023-08-30T01:01:58;4.60;;;3.60;;
54823;SDS011;40724;53.196;5.980;2023-08-30T01:04:26;7.15;;;3.65;;
54823;SDS011;40724;53.196;5.980;2023-08-30T01:06:53;5.25;;;4.22;;
54823;SDS011;40724;53.196;5.980;2023-08-30T01:09:22;4.47;;;3.63;;
54823;SDS011;40724;53.196;5.980;2023-08-30T01:12:07;5.30;;;4.38;;
54823;SDS011;40724;53.196;5.980;2023-08-30T01:14:57;4.85;;;3.20;;
54823;SDS011;40724;53.196;5.980;2023-08-30T01:17:24;4.90;;;3.90;;
54823;SDS011;40724;53.196;5.980;2023-08-30T01:20:01;4.75;;;3.67;;
54823;SDS011;40724;53.196;5.980;2023-08-30T01:23:01;4.13;;;3.53;;
54823;SDS011;40724;53.196;5.980;2023-08-30T01:28:16;4.53;;;3.67;;
54823;SDS011;40724;53.196;5.980;2023-08-30T01:30:42;4.85;;;3.78;;
54823;SDS011;40724;53.196;5.980;2023-08-30T01:33:09;5.70;;;3.38;;
54823;SDS011;40724;53.196;5.980;2023-08-30T01:35:35;4.93;;;3.22;;
54823;SDS011;40724;53.196;5.980;2023-08-30T01:38:05;5.30;;;4.00;;
54823;SDS011;40724;53.196;5.980;2023-08-30T01:40:33;5.15;;;3.67;;
54823;SDS011;40724;53.196;5.980;2023-08-30T01:43:01;5.10;;;3.20;;
54823;SDS011;40724;53.196;5.980;2023-08-30T01:45:29;4.57;;;3.67;;
54823;SDS011;40724;53.196;5.980;2023-08-30T01:47:56;5.43;;;3.88;;
54823;SDS011;40724;53.196;5.980;2023-08-30T01:50:23;5.50;;;4.00;;
54823;SDS011;40724;53.196;5.980;2023-08-30T01:52:49;6.40;;;4.13;;
54823;SDS011;40724;53.196;5.980;2023-08-30T01:55:15;4.93;;;3.45;;
54823;SDS011;40724;53.196;5.980;2023-08-30T01:57:44;4.72;;;3.20;;
54823;SDS011;40724;53.196;5.980;2023-08-30T02:00:10;5.20;;;3.85;;
54823;SDS011;40724;53.196;5.980;2023-08-30T02:02:36;10.25;;;4.15;;
54823;SDS011;40724;53.196;5.980;2023-08-30T02:05:02;4.75;;;3.65;;
54823;SDS011;40724;53.196;5.980;2023-08-30T02:07:36;6.85;;;3.95;;
54823;SDS011;40724;53.196;5.980;2023-08-30T02:10:06;7.40;;;4.25;;
54823;SDS011;40724;53.196;5.980;2023-08-30T02:12:48;4.93;;;3.47;;
54823;SDS011;40724;53.196;5.980;2023-08-30T02:15:15;5.88;;;3.65;;
54823;SDS011;40724;53.196;5.980;2023-08-30T02:17:42;5.32;;;3.80;;
54823;SDS011;40724;53.196;5.980;2023-08-30T02:20:09;14.25;;;3.90;;
54823;SDS011;40724;53.196;5.980;2023-08-30T02:22:35;5.63;;;3.72;;
54823;SDS011;40724;53.196;5.980;2023-08-30T02:25:01;6.03;;;3.88;;
54823;SDS011;40724;53.196;5.980;2023-08-30T02:27:30;8.07;;;4.70;;
54823;SDS011;40724;53.196;5.980;2023-08-30T02:29:57;5.28;;;3.83;;
54823;SDS011;40724;53.196;5.980;2023-08-30T02:32:23;5.47;;;3.80;;
54823;SDS011;40724;53.196;5.980;2023-08-30T02:34:50;4.65;;;3.72;;
54823;SDS011;40724;53.196;5.980;2023-08-30T02:37:16;4.70;;;3.20;;
54823;SDS011;40724;53.196;5.980;2023-08-30T02:39:42;4.68;;;3.40;;
54823;SDS011;40724;53.196;5.980;2023-08-30T02:42:09;4.57;;;3.10;;
54823;SDS011;40724;53.196;5.980;2023-08-30T02:44:35;4.03;;;3.38;;
54823;SDS011;40724;53.196;5.980;2023-08-30T02:47:01;4.50;;;3.60;;
54823;SDS011;40724;53.196;5.980;2023-08-30T02:49:27;5.43;;;3.67;;
54823;SDS011;40724;53.196;5.980;2023-08-30T02:51:53;5.63;;;3.80;;
54823;SDS011;40724;53.196;5.980;2023-08-30T02:54:19;5.25;;;3.85;;
54823;SDS011;40724;53.196;5.980;2023-08-30T02:56:47;5.28;;;3.70;;
54823;SDS011;40724;53.196;5.980;2023-08-30T02:59:13;4.53;;;3.50;;
54823;SDS011;40724;53.196;5.980;2023-08-30T03:01:39;4.63;;;3.90;;
54823;SDS011;40724;53.196;5.980;2023-08-30T03:04:06;5.45;;;3.83;;
54823;SDS011;40724;53.196;5.980;2023-08-30T03:06:32;5.97;;;3.90;;
54823;SDS011;40724;53.196;5.980;2023-08-30T03:08:59;5.25;;;3.90;;
54823;SDS011;40724;53.196;5.980;2023-08-30T03:11:25;5.18;;;3.30;;
54823;SDS011;40724;53.196;5.980;2023-08-30T03:13:52;5.45;;;3.75;;
54823;SDS011;40724;53.196;5.980;2023-08-30T03:16:19;5.07;;;3.60;;
54823;SDS011;40724;53.196;5.980;2023-08-30T03:18:45;4.85;;;3.17;;
54823;SDS011;40724;53.196;5.980;2023-08-30T03:21:12;4.30;;;3.53;;
54823;SDS011;40724;53.196;5.980;2023-08-30T03:23:38;7.05;;;4.80;;
54823;SDS011;40724;53.196;5.980;2023-08-30T03:26:11;6.57;;;4.22;;
54823;SDS011;40724;53.196;5.980;2023-08-30T03:28:38;5.55;;;3.78;;
54823;SDS011;40724;53.196;5.980;2023-08-30T03:31:17;4.72;;;3.75;;
54823;SDS011;40724;53.196;5.980;2023-08-30T03:33:44;5.50;;;3.55;;
54823;SDS011;40724;53.196;5.980;2023-08-30T03:36:11;6.70;;;4.35;;
54823;SDS011;40724;53.196;5.980;2023-08-30T03:38:37;5.18;;;3.83;;
54823;SDS011;40724;53.196;5.980;2023-08-30T03:41:04;6.75;;;3.58;;
54823;SDS011;40724;53.196;5.980;2023-08-30T03:43:31;5.40;;;4.07;;
54823;SDS011;40724;53.196;5.980;2023-08-30T03:45:57;6.75;;;4.20;;
54823;SDS011;40724;53.196;5.980;2023-08-30T03:48:24;6.72;;;3.95;;
54823;SDS011;40724;53.196;5.980;2023-08-30T03:50:50;5.63;;;3.80;;
54823;SDS011;40724;53.196;5.980;2023-08-30T03:53:16;9.48;;;4.10;;
54823;SDS011;40724;53.196;5.980;2023-08-30T03:55:42;5.68;;;3.75;;
54823;SDS011;40724;53.196;5.980;2023-08-30T03:58:08;5.93;;;4.15;;
54823;SDS011;40724;53.196;5.980;2023-08-30T04:00:38;5.82;;;3.92;;
54823;SDS011;40724;53.196;5.980;2023-08-30T04:03:04;6.95;;;4.57;;
54823;SDS011;40724;53.196;5.980;2023-08-30T04:05:34;5.50;;;3.90;;
54823;SDS011;40724;53.196;5.980;2023-08-30T04:08:04;5.30;;;3.80;;
54823;SDS011;40724;53.196;5.980;2023-08-30T04:10:37;5.43;;;4.30;;
54823;SDS011;40724;53.196;5.980;2023-08-30T04:13:03;5.95;;;4.00;;
54823;SDS011;40724;53.196;5.980;2023-08-30T04:15:33;6.90;;;4.82;;
54823;SDS011;40724;53.196;5.980;2023-08-30T04:18:00;5.95;;;4.30;;
54823;SDS011;40724;53.196;5.980;2023-08-30T04:20:26;5.22;;;3.65;;
54823;SDS011;40724;53.196;5.980;2023-08-30T04:22:52;6.00;;;4.53;;
54823;SDS011;40724;53.196;5.980;2023-08-30T04:25:20;6.90;;;4.47;;
54823;SDS011;40724;53.196;5.980;2023-08-30T04:27:46;7.00;;;4.38;;
54823;SDS011;40724;53.196;5.980;2023-08-30T04:30:12;7.38;;;4.50;;
54823;SDS011;40724;53.196;5.980;2023-08-30T04:32:38;6.68;;;5.00;;
54823;SDS011;40724;53.196;5.980;2023-08-30T04:35:05;5.95;;;4.45;;
54823;SDS011;40724;53.196;5.980;2023-08-30T04:37:31;7.07;;;4.32;;
54823;SDS011;40724;53.196;5.980;2023-08-30T04:39:57;9.38;;;4.97;;
54823;SDS011;40724;53.196;5.980;2023-08-30T04:42:23;6.70;;;4.65;;
54823;SDS011;40724;53.196;5.980;2023-08-30T04:44:50;7.68;;;4.70;;
54823;SDS011;40724;53.196;5.980;2023-08-30T04:47:17;6.57;;;4.55;;
54823;SDS011;40724;53.196;5.980;2023-08-30T04:49:43;7.32;;;4.35;;
54823;SDS011;40724;53.196;5.980;2023-08-30T04:52:09;6.43;;;4.18;;
54823;SDS011;40724;53.196;5.980;2023-08-30T04:54:35;8.15;;;4.50;;
54823;SDS011;40724;53.196;5.980;2023-08-30T04:57:01;6.82;;;4.40;;
54823;SDS011;40724;53.196;5.980;2023-08-30T04:59:27;6.38;;;4.43;;
54823;SDS011;40724;53.196;5.980;2023-08-30T05:01:54;6.10;;;4.47;;
54823;SDS011;40724;53.196;5.980;2023-08-30T05:04:20;5.45;;;4.18;;
54823;SDS011;40724;53.196;5.980;2023-08-30T05:06:46;7.63;;;5.03;;
54823;SDS011;40724;53.196;5.980;2023-08-30T05:09:12;8.20;;;4.05;;
54823;SDS011;40724;53.196;5.980;2023-08-30T05:11:38;5.85;;;3.90;;
54823;SDS011;40724;53.196;5.980;2023-08-30T05:14:05;7.18;;;5.03;;
54823;SDS011;40724;53.196;5.980;2023-08-30T05:16:32;6.50;;;4.85;;
54823;SDS011;40724;53.196;5.980;2023-08-30T05:18:58;5.50;;;4.20;;
54823;SDS011;40724;53.196;5.980;2023-08-30T05:21:24;7.63;;;5.07;;
54823;SDS011;40724;53.196;5.980;2023-08-30T05:23:50;9.32;;;5.18;;
54823;SDS011;40724;53.196;5.980;2023-08-30T05:26:16;6.22;;;4.63;;
54823;SDS011;40724;53.196;5.980;2023-08-30T05:28:44;7.10;;;5.00;;
54823;SDS011;40724;53.196;5.980;2023-08-30T05:31:10;7.32;;;4.63;;
54823;SDS011;40724;53.196;5.980;2023-08-30T05:33:36;7.68;;;5.25;;
54823;SDS011;40724;53.196;5.980;2023-08-30T05:36:03;5.88;;;4.60;;
54823;SDS011;40724;53.196;5.980;2023-08-30T05:38:29;7.20;;;4.88;;
54823;SDS011;40724;53.196;5.980;2023-08-30T05:40:55;8.18;;;5.53;;
54823;SDS011;40724;53.196;5.980;2023-08-30T05:43:21;8.52;;;4.47;;
54823;SDS011;40724;53.196;5.980;2023-08-30T05:45:47;9.55;;;5.60;;
54823;SDS011;40724;53.196;5.980;2023-08-30T05:48:13;5.70;;;4.45;;
54823;SDS011;40724;53.196;5.980;2023-08-30T05:50:39;8.98;;;5.93;;
54823;SDS011;40724;53.196;5.980;2023-08-30T05:53:05;7.00;;;5.20;;
54823;SDS011;40724;53.196;5.980;2023-08-30T05:55:32;7.30;;;5.30;;
54823;SDS011;40724;53.196;5.980;2023-08-30T05:57:58;8.20;;;4.90;;
54823;SDS011;40724;53.196;5.980;2023-08-30T06:00:30;8.80;;;5.18;;
54823;SDS011;40724;53.196;5.980;2023-08-30T06:02:56;7.65;;;5.80;;
54823;SDS011;40724;53.196;5.980;2023-08-30T06:05:22;7.55;;;5.50;;
54823;SDS011;40724;53.196;5.980;2023-08-30T06:07:48;6.80;;;5.60;;
54823;SDS011;40724;53.196;5.980;2023-08-30T06:10:14;8.20;;;5.82;;
54823;SDS011;40724;53.196;5.980;2023-08-30T06:12:40;7.57;;;5.60;;
54823;SDS011;40724;53.196;5.980;2023-08-30T06:15:07;6.80;;;5.47;;
54823;SDS011;40724;53.196;5.980;2023-08-30T06:17:33;6.47;;;5.32;;
54823;SDS011;40724;53.196;5.980;2023-08-30T06:19:59;8.02;;;6.07;;
54823;SDS011;40724;53.196;5.980;2023-08-30T06:22:25;7.90;;;5.75;;
54823;SDS011;40724;53.196;5.980;2023-08-30T06:24:51;7.25;;;5.35;;
54823;SDS011;40724;53.196;5.980;2023-08-30T06:27:17;7.85;;;5.43;;
54823;SDS011;40724;53.196;5.980;2023-08-30T06:29:44;6.70;;;4.68;;
54823;SDS011;40724;53.196;5.980;2023-08-30T06:32:10;10.23;;;5.30;;
54823;SDS011;40724;53.196;5.980;2023-08-30T06:34:36;8.85;;;5.53;;
54823;SDS011;40724;53.196;5.980;2023-08-30T06:37:02;9.68;;;6.13;;
54823;SDS011;40724;53.196;5.980;2023-08-30T06:39:34;6.88;;;5.70;;
54823;SDS011;40724;53.196;5.980;2023-08-30T06:42:02;8.30;;;5.57;;
54823;SDS011;40724;53.196;5.980;2023-08-30T06:44:28;8.65;;;5.55;;
54823;SDS011;40724;53.196;5.980;2023-08-30T06:46:58;7.18;;;5.15;;
54823;SDS011;40724;53.196;5.980;2023-08-30T06:49:24;5.80;;;4.53;;
54823;SDS011;40724;53.196;5.980;2023-08-30T06:51:50;6.53;;;4.68;;
54823;SDS011;40724;53.196;5.980;2023-08-30T06:54:16;6.53;;;4.93;;
54823;SDS011;40724;53.196;5.980;2023-08-30T06:56:58;6.88;;;5.15;;
54823;SDS011;40724;53.196;5.980;2023-08-30T06:59:25;7.72;;;5.63;;
54823;SDS011;40724;53.196;5.980;2023-08-30T07:01:51;5.85;;;4.47;;
54823;SDS011;40724;53.196;5.980;2023-08-30T07:04:17;7.85;;;4.63;;
54823;SDS011;40724;53.196;5.980;2023-08-30T07:06:43;6.95;;;4.93;;
54823;SDS011;40724;53.196;5.980;2023-08-30T07:09:10;7.60;;;5.13;;
54823;SDS011;40724;53.196;5.980;2023-08-30T07:11:39;6.43;;;4.32;;
54823;SDS011;40724;53.196;5.980;2023-08-30T07:14:05;6.93;;;4.22;;
54823;SDS011;40724;53.196;5.980;2023-08-30T07:16:31;8.45;;;4.93;;
54823;SDS011;40724;53.196;5.980;2023-08-30T07:18:57;9.43;;;5.75;;
54823;SDS011;40724;53.196;5.980;2023-08-30T07:21:25;7.53;;;4.90;;
54823;SDS011;40724;53.196;5.980;2023-08-30T07:23:51;7.72;;;4.72;;
54823;SDS011;40724;53.196;5.980;2023-08-30T07:26:17;6.53;;;4.82;;
54823;SDS011;40724;53.196;5.980;2023-08-30T07:28:43;7.70;;;4.30;;
54823;SDS011;40724;53.196;5.980;2023-08-30T07:31:09;6.88;;;4.43;;
54823;SDS011;40724;53.196;5.980;2023-08-30T07:33:38;6.30;;;4.80;;
54823;SDS011;40724;53.196;5.980;2023-08-30T07:36:05;6.50;;;4.38;;
54823;SDS011;40724;53.196;5.980;2023-08-30T07:38:31;6.13;;;4.20;;
54823;SDS011;40724;53.196;5.980;2023-08-30T07:40:57;6.80;;;4.10;;
54823;SDS011;40724;53.196;5.980;2023-08-30T07:43:23;6.82;;;3.80;;
54823;SDS011;40724;53.196;5.980;2023-08-30T07:45:49;6.70;;;4.53;;
54823;SDS011;40724;53.196;5.980;2023-08-30T07:48:15;6.90;;;3.90;;
54823;SDS011;40724;53.196;5.980;2023-08-30T07:50:41;6.47;;;4.30;;
54823;SDS011;40724;53.196;5.980;2023-08-30T07:53:07;7.78;;;5.60;;
54823;SDS011;40724;53.196;5.980;2023-08-30T07:55:35;7.00;;;4.88;;
54823;SDS011;40724;53.196;5.980;2023-08-30T07:58:01;8.50;;;4.80;;
54823;SDS011;40724;53.196;5.980;2023-08-30T08:00:28;7.03;;;4.38;;
54823;SDS011;40724;53.196;5.980;2023-08-30T08:02:54;7.38;;;4.55;;
54823;SDS011;40724;53.196;5.980;2023-08-30T08:05:20;7.22;;;3.88;;
54823;SDS011;40724;53.196;5.980;2023-08-30T08:07:49;6.15;;;3.72;;
54823;SDS011;40724;53.196;5.980;2023-08-30T08:10:16;9.38;;;4.45;;
54823;SDS011;40724;53.196;5.980;2023-08-30T08:12:42;6.75;;;3.42;;
54823;SDS011;40724;53.196;5.980;2023-08-30T08:15:08;4.90;;;3.38;;
54823;SDS011;40724;53.196;5.980;2023-08-30T08:17:34;4.65;;;3.08;;
54823;SDS011;40724;53.196;5.980;2023-08-30T08:20:00;5.25;;;4.00;;
54823;SDS011;40724;53.196;5.980;2023-08-30T08:22:27;6.30;;;3.20;;
54823;SDS011;40724;53.196;5.980;2023-08-30T08:24:53;4.93;;;3.75;;
54823;SDS011;40724;53.196;5.980;2023-08-30T08:27:21;5.45;;;3.35;;
54823;SDS011;40724;53.196;5.980;2023-08-30T08:29:47;5.45;;;3.50;;
54823;SDS011;40724;53.196;5.980;2023-08-30T08:32:13;5.05;;;2.97;;
54823;SDS011;40724;53.196;5.980;2023-08-30T08:34:39;4.57;;;3.08;;
54823;SDS011;40724;53.196;5.980;2023-08-30T08:37:06;5.43;;;3.58;;
54823;SDS011;40724;53.196;5.980;2023-08-30T08:39:32;4.18;;;2.75;;
54823;SDS011;40724;53.196;5.980;2023-08-30T08:41:59;6.60;;;3.60;;
54823;SDS011;40724;53.196;5.980;2023-08-30T08:44:26;6.68;;;3.63;;
54823;SDS011;40724;53.196;5.980;2023-08-30T08:46:52;4.93;;;3.35;;
54823;SDS011;40724;53.196;5.980;2023-08-30T08:49:19;5.85;;;3.72;;
54823;SDS011;40724;53.196;5.980;2023-08-30T08:51:45;5.60;;;3.55;;
54823;SDS011;40724;53.196;5.980;2023-08-30T08:54:12;5.47;;;3.15;;
54823;SDS011;40724;53.196;5.980;2023-08-30T08:56:38;4.95;;;3.35;;
54823;SDS011;40724;53.196;5.980;2023-08-30T08:59:06;5.65;;;3.38;;
54823;SDS011;40724;53.196;5.980;2023-08-30T09:01:33;4.88;;;3.28;;
54823;SDS011;40724;53.196;5.980;2023-08-30T09:04:04;6.93;;;3.70;;
54823;SDS011;40724;53.196;5.980;2023-08-30T09:06:31;5.00;;;3.30;;
54823;SDS011;40724;53.196;5.980;2023-08-30T09:08:57;5.45;;;3.15;;
54823;SDS011;40724;53.196;5.980;2023-08-30T09:11:23;6.35;;;3.80;;
54823;SDS011;40724;53.196;5.980;2023-08-30T09:13:49;6.05;;;2.97;;
54823;SDS011;40724;53.196;5.980;2023-08-30T09:16:15;4.47;;;2.90;;
54823;SDS011;40724;53.196;5.980;2023-08-30T09:18:42;5.43;;;3.10;;
54823;SDS011;40724;53.196;5.980;2023-08-30T09:21:08;6.32;;;4.05;;
54823;SDS011;40724;53.196;5.980;2023-08-30T09:23:34;4.88;;;2.53;;
54823;SDS011;40724;53.196;5.980;2023-08-30T09:26:01;6.60;;;3.17;;
54823;SDS011;40724;53.196;5.980;2023-08-30T09:28:30;6.10;;;2.58;;
54823;SDS011;40724;53.196;5.980;2023-08-30T09:30:59;4.32;;;2.85;;
54823;SDS011;40724;53.196;5.980;2023-08-30T09:33:32;5.57;;;3.22;;
54823;SDS011;40724;53.196;5.980;2023-08-30T09:35:59;4.18;;;2.78;;
54823;SDS011;40724;53.196;5.980;2023-08-30T09:38:25;4.68;;;3.05;;
54823;SDS011;40724;53.196;5.980;2023-08-30T09:40:52;3.97;;;2.95;;
54823;SDS011;40724;53.196;5.980;2023-08-30T09:43:19;4.43;;;2.88;;
54823;SDS011;40724;53.196;5.980;2023-08-30T09:45:47;3.65;;;2.85;;
54823;SDS011;40724;53.196;5.980;2023-08-30T09:48:13;4.82;;;2.55;;
54823;SDS011;40724;53.196;5.980;2023-08-30T09:50:39;3.42;;;2.22;;
54823;SDS011;40724;53.196;5.980;2023-08-30T09:53:08;5.38;;;2.63;;
54823;SDS011;40724;53.196;5.980;2023-08-30T09:55:37;4.57;;;2.70;;
54823;SDS011;40724;53.196;5.980;2023-08-30T09:58:04;4.35;;;3.08;;
54823;SDS011;40724;53.196;5.980;2023-08-30T10:00:31;6.80;;;2.92;;
54823;SDS011;40724;53.196;5.980;2023-08-30T10:02:58;4.05;;;2.63;;
54823;SDS011;40724;53.196;5.980;2023-08-30T10:05:24;5.47;;;2.70;;
54823;SDS011;40724;53.196;5.980;2023-08-30T10:07:54;3.75;;;2.38;;
54823;SDS011;40724;53.196;5.980;2023-08-30T10:10:20;5.10;;;3.22;;
54823;SDS011;40724;53.196;5.980;2023-08-30T10:12:47;5.57;;;2.55;;
54823;SDS011;40724;53.196;5.980;2023-08-30T10:15:13;4.50;;;3.20;;
54823;SDS011;40724;53.196;5.980;2023-08-30T10:17:41;8.02;;;3.20;;
54823;SDS011;40724;53.196;5.980;2023-08-30T10:20:10;4.30;;;2.33;;
54823;SDS011;40724;53.196;5.980;2023-08-30T10:22:40;7.53;;;3.22;;
54823;SDS011;40724;53.196;5.980;2023-08-30T10:25:08;4.57;;;2.90;;
54823;SDS011;40724;53.196;5.980;2023-08-30T10:27:35;4.35;;;2.65;;
54823;SDS011;40724;53.196;5.980;2023-08-30T10:30:03;5.90;;;2.83;;
54823;SDS011;40724;53.196;5.980;2023-08-30T10:32:31;4.93;;;2.95;;
54823;SDS011;40724;53.196;5.980;2023-08-30T10:35:00;5.28;;;2.42;;
54823;SDS011;40724;53.196;5.980;2023-08-30T10:37:26;5.20;;;3.28;;
54823;SDS011;40724;53.196;5.980;2023-08-30T10:39:53;3.80;;;2.60;;
54823;SDS011;40724;53.196;5.980;2023-08-30T10:42:24;5.15;;;3.35;;
54823;SDS011;40724;53.196;5.980;2023-08-30T10:44:51;3.85;;;2.55;;
54823;SDS011;40724;53.196;5.980;2023-08-30T10:47:24;6.25;;;2.97;;
54823;SDS011;40724;53.196;5.980;2023-08-30T10:49:53;4.65;;;2.50;;
54823;SDS011;40724;53.196;5.980;2023-08-30T10:52:23;3.53;;;2.22;;
54823;SDS011;40724;53.196;5.980;2023-08-30T10:54:49;6.45;;;2.88;;
54823;SDS011;40724;53.196;5.980;2023-08-30T10:57:19;5.65;;;3.35;;
54823;SDS011;40724;53.196;5.980;2023-08-30T11:00:05;5.03;;;2.92;;
54823;SDS011;40724;53.196;5.980;2023-08-30T11:02:35;5.05;;;2.38;;
54823;SDS011;40724;53.196;5.980;2023-08-30T11:05:02;7.10;;;2.83;;
54823;SDS011;40724;53.196;5.980;2023-08-30T11:07:29;4.60;;;2.53;;
54823;SDS011;40724;53.196;5.980;2023-08-30T11:09:55;4.70;;;2.40;;
54823;SDS011;40724;53.196;5.980;2023-08-30T11:12:27;3.45;;;2.13;;
54823;SDS011;40724;53.196;5.980;2023-08-30T11:14:55;3.65;;;2.25;;
54823;SDS011;40724;53.196;5.980;2023-08-30T11:17:22;4.28;;;2.88;;
54823;SDS011;40724;53.196;5.980;2023-08-30T11:19:51;4.43;;;2.65;;
54823;SDS011;40724;53.196;5.980;2023-08-30T11:22:23;6.57;;;2.15;;
54823;SDS011;40724;53.196;5.980;2023-08-30T11:24:50;4.07;;;2.60;;
54823;SDS011;40724;53.196;5.980;2023-08-30T11:27:18;4.53;;;2.72;;
54823;SDS011;40724;53.196;5.980;2023-08-30T11:29:45;3.03;;;2.08;;
54823;SDS011;40724;53.196;5.980;2023-08-30T11:32:11;4.70;;;2.83;;
54823;SDS011;40724;53.196;5.980;2023-08-30T11:34:37;3.47;;;2.17;;
54823;SDS011;40724;53.196;5.980;2023-08-30T11:37:03;4.82;;;3.40;;
54823;SDS011;40724;53.196;5.980;2023-08-30T11:39:29;2.25;;;1.95;;
54823;SDS011;40724;53.196;5.980;2023-08-30T11:41:56;5.20;;;2.47;;
54823;SDS011;40724;53.196;5.980;2023-08-30T11:44:28;4.20;;;2.70;;
54823;SDS011;40724;53.196;5.980;2023-08-30T11:47:00;3.83;;;2.40;;
54823;SDS011;40724;53.196;5.980;2023-08-30T11:51:53;3.28;;;2.17;;
54823;SDS011;40724;53.196;5.980;2023-08-30T11:54:21;3.33;;;2.15;;
54823;SDS011;40724;53.196;5.980;2023-08-30T11:56:48;4.97;;;3.17;;
54823;SDS011;40724;53.196;5.980;2023-08-30T11:59:18;4.20;;;2.58;;
54823;SDS011;40724;53.196;5.980;2023-08-30T12:01:44;4.07;;;2.80;;
54823;SDS011;40724;53.196;5.980;2023-08-30T12:04:11;3.42;;;2.28;;
54823;SDS011;40724;53.196;5.980;2023-08-30T12:06:37;4.43;;;2.72;;
54823;SDS011;40724;53.196;5.980;2023-08-30T12:09:03;3.60;;;2.42;;
54823;SDS011;40724;53.196;5.980;2023-08-30T12:11:33;5.40;;;2.67;;
54823;SDS011;40724;53.196;5.980;2023-08-30T12:14:02;4.22;;;2.47;;
54823;SDS011;40724;53.196;5.980;2023-08-30T12:16:28;4.47;;;2.55;;
54823;SDS011;40724;53.196;5.980;2023-08-30T12:18:54;3.35;;;2.45;;
54823;SDS011;40724;53.196;5.980;2023-08-30T12:21:20;3.95;;;2.83;;
54823;SDS011;40724;53.196;5.980;2023-08-30T12:23:47;4.45;;;2.88;;
54823;SDS011;40724;53.196;5.980;2023-08-30T12:26:13;5.97;;;2.92;;
54823;SDS011;40724;53.196;5.980;2023-08-30T12:28:39;5.13;;;2.45;;
54823;SDS011;40724;53.196;5.980;2023-08-30T12:31:06;3.83;;;2.35;;
54823;SDS011;40724;53.196;5.980;2023-08-30T12:33:33;4.32;;;2.92;;
54823;SDS011;40724;53.196;5.980;2023-08-30T12:35:59;3.40;;;2.47;;
54823;SDS011;40724;53.196;5.980;2023-08-30T12:38:25;5.47;;;2.40;;
54823;SDS011;40724;53.196;5.980;2023-08-30T12:40:52;4.38;;;2.67;;
54823;SDS011;40724;53.196;5.980;2023-08-30T12:43:19;3.33;;;2.80;;
54823;SDS011;40724;53.196;5.980;2023-08-30T12:45:46;3.97;;;2.33;;
54823;SDS011;40724;53.196;5.980;2023-08-30T12:48:13;4.30;;;2.80;;
54823;SDS011;40724;53.196;5.980;2023-08-30T12:50:40;3.53;;;2.30;;
54823;SDS011;40724;53.196;5.980;2023-08-30T12:53:07;6.05;;;2.70;;
54823;SDS011;40724;53.196;5.980;2023-08-30T12:55:34;3.85;;;2.25;;
54823;SDS011;40724;53.196;5.980;2023-08-30T12:58:00;4.40;;;2.90;;
54823;SDS011;40724;53.196;5.980;2023-08-30T13:00:27;3.47;;;2.20;;
54823;SDS011;40724;53.196;5.980;2023-08-30T13:02:53;4.90;;;2.40;;
54823;SDS011;40724;53.196;5.980;2023-08-30T13:05:20;4.22;;;2.70;;
54823;SDS011;40724;53.196;5.980;2023-08-30T13:07:46;3.65;;;2.22;;
54823;SDS011;40724;53.196;5.980;2023-08-30T13:10:13;4.63;;;2.67;;
54823;SDS011;40724;53.196;5.980;2023-08-30T13:12:40;3.60;;;2.30;;
54823;SDS011;40724;53.196;5.980;2023-08-30T13:15:06;2.80;;;2.03;;
54823;SDS011;40724;53.196;5.980;2023-08-30T13:17:33;2.35;;;1.70;;
54823;SDS011;40724;53.196;5.980;2023-08-30T13:19:59;3.50;;;2.30;;
54823;SDS011;40724;53.196;5.980;2023-08-30T13:22:26;2.95;;;1.85;;
54823;SDS011;40724;53.196;5.980;2023-08-30T13:24:53;2.90;;;2.03;;
54823;SDS011;40724;53.196;5.980;2023-08-30T13:27:19;1.65;;;1.40;;
54823;SDS011;40724;53.196;5.980;2023-08-30T13:29:45;4.45;;;1.80;;
54823;SDS011;40724;53.196;5.980;2023-08-30T13:32:11;3.50;;;1.80;;
54823;SDS011;40724;53.196;5.980;2023-08-30T13:34:38;3.03;;;1.77;;
54823;SDS011;40724;53.196;5.980;2023-08-30T13:37:04;2.30;;;1.60;;
54823;SDS011;40724;53.196;5.980;2023-08-30T13:39:30;3.45;;;1.90;;
54823;SDS011;40724;53.196;5.980;2023-08-30T13:41:57;3.85;;;1.65;;
54823;SDS011;40724;53.196;5.980;2023-08-30T13:44:23;3.88;;;2.00;;
54823;SDS011;40724;53.196;5.980;2023-08-30T13:46:49;2.75;;;1.50;;
54823;SDS011;40724;53.196;5.980;2023-08-30T13:49:16;2.53;;;1.52;;
54823;SDS011;40724;53.196;5.980;2023-08-30T13:51:45;2.78;;;1.67;;
54823;SDS011;40724;53.196;5.980;2023-08-30T13:54:11;2.60;;;1.35;;
54823;SDS011;40724;53.196;5.980;2023-08-30T13:56:37;2.55;;;1.92;;
54823;SDS011;40724;53.196;5.980;2023-08-30T13:59:04;2.80;;;1.70;;
54823;SDS011;40724;53.196;5.980;2023-08-30T14:01:33;3.08;;;1.52;;
54823;SDS011;40724;53.196;5.980;2023-08-30T14:04:01;2.95;;;1.70;;
54823;SDS011;40724;53.196;5.980;2023-08-30T14:06:30;3.00;;;1.70;;
54823;SDS011;40724;53.196;5.980;2023-08-30T14:08:57;2.47;;;1.90;;
54823;SDS011;40724;53.196;5.980;2023-08-30T14:11:23;2.60;;;1.60;;
54823;SDS011;40724;53.196;5.980;2023-08-30T14:13:49;2.67;;;1.75;;
54823;SDS011;40724;53.196;5.980;2023-08-30T14:16:15;2.92;;;1.58;;
54823;SDS011;40724;53.196;5.980;2023-08-30T14:18:42;3.50;;;2.33;;
54823;SDS011;40724;53.196;5.980;2023-08-30T14:21:09;2.35;;;1.55;;
54823;SDS011;40724;53.196;5.980;2023-08-30T14:23:35;2.10;;;1.60;;
54823;SDS011;40724;53.196;5.980;2023-08-30T14:26:02;1.83;;;1.30;;
54823;SDS011;40724;53.196;5.980;2023-08-30T14:30:59;2.45;;;1.60;;
54823;SDS011;40724;53.196;5.980;2023-08-30T14:33:26;2.40;;;1.48;;
54823;SDS011;40724;53.196;5.980;2023-08-30T14:35:52;2.60;;;1.90;;
54823;SDS011;40724;53.196;5.980;2023-08-30T14:38:19;4.35;;;1.83;;
54823;SDS011;40724;53.196;5.980;2023-08-30T14:40:53;2.17;;;1.45;;
54823;SDS011;40724;53.196;5.980;2023-08-30T14:43:20;2.63;;;1.80;;
54823;SDS011;40724;53.196;5.980;2023-08-30T14:45:46;2.90;;;1.50;;
54823;SDS011;40724;53.196;5.980;2023-08-30T14:48:12;3.63;;;1.77;;
54823;SDS011;40724;53.196;5.980;2023-08-30T14:50:38;1.70;;;1.20;;
54823;SDS011;40724;53.196;5.980;2023-08-30T14:53:05;2.38;;;1.48;;
54823;SDS011;40724;53.196;5.980;2023-08-30T14:55:31;2.00;;;1.60;;